sensor_id;sensor_type;location;lat;lon;timestamp;P1;durP1;ratioP1;P2;durP2;ratioP2
6564;SDS011;3316;44.118;27.258;2022-12-16T00:01:39;36.80;;;17.40;;
6564;SDS011;3316;44.118;27.258;2022-12-16T00:04:04;38.00;;;15.90;;
6564;SDS011;3316;44.118;27.258;2022-12-16T00:06:30;57.53;;;24.30;;
6564;SDS011;3316;44.118;27.258;2022-12-16T00:08:57;44.67;;;16.10;;
6564;SDS011;3316;44.118;27.258;2022-12-16T00:11:23;30.87;;;13.70;;
6564;SDS011;3316;44.118;27.258;2022-12-16T00:13:49;27.90;;;13.57;;
6564;SDS011;3316;44.118;27.258;2022-12-16T00:16:16;30.00;;;15.50;;
6564;SDS011;3316;44.118;27.258;2022-12-16T00:18:43;32.87;;;15.87;;
6564;SDS011;3316;44.118;27.258;2022-12-16T00:21:09;30.23;;;14.97;;
6564;SDS011;3316;44.118;27.258;2022-12-16T00:23:36;32.50;;;15.20;;
6564;SDS011;3316;44.118;27.258;2022-12-16T00:26:03;32.20;;;14.97;;
6564;SDS011;3316;44.118;27.258;2022-12-16T00:28:29;42.00;;;19.63;;
6564;SDS011;3316;44.118;27.258;2022-12-16T00:30:54;44.50;;;16.97;;
6564;SDS011;3316;44.118;27.258;2022-12-16T00:33:21;53.70;;;23.17;;
6564;SDS011;3316;44.118;27.258;2022-12-16T00:35:48;37.80;;;15.63;;
6564;SDS011;3316;44.118;27.258;2022-12-16T00:38:14;34.67;;;17.23;;
6564;SDS011;3316;44.118;27.258;2022-12-16T00:40:39;32.03;;;14.83;;
6564;SDS011;3316;44.118;27.258;2022-12-16T00:43:05;35.33;;;18.10;;
6564;SDS011;3316;44.118;27.258;2022-12-16T00:45:31;42.13;;;19.67;;
6564;SDS011;3316;44.118;27.258;2022-12-16T00:47:56;34.90;;;16.63;;
6564;SDS011;3316;44.118;27.258;2022-12-16T00:50:22;28.60;;;15.87;;
6564;SDS011;3316;44.118;27.258;2022-12-16T00:52:49;32.67;;;16.73;;
6564;SDS011;3316;44.118;27.258;2022-12-16T00:55:15;35.43;;;17.47;;
6564;SDS011;3316;44.118;27.258;2022-12-16T00:57:41;28.70;;;13.70;;
6564;SDS011;3316;44.118;27.258;2022-12-16T01:00:07;19.60;;;11.90;;
6564;SDS011;3316;44.118;27.258;2022-12-16T01:02:40;50.43;;;12.93;;
6564;SDS011;3316;44.118;27.258;2022-12-16T01:05:07;56.63;;;26.53;;
6564;SDS011;3316;44.118;27.258;2022-12-16T01:07:34;39.40;;;18.60;;
6564;SDS011;3316;44.118;27.258;2022-12-16T01:09:59;45.87;;;14.60;;
6564;SDS011;3316;44.118;27.258;2022-12-16T01:12:25;32.93;;;15.33;;
6564;SDS011;3316;44.118;27.258;2022-12-16T01:14:50;36.10;;;18.67;;
6564;SDS011;3316;44.118;27.258;2022-12-16T01:17:16;40.87;;;20.93;;
6564;SDS011;3316;44.118;27.258;2022-12-16T01:19:41;44.23;;;24.37;;
6564;SDS011;3316;44.118;27.258;2022-12-16T01:22:07;39.43;;;21.07;;
6564;SDS011;3316;44.118;27.258;2022-12-16T01:24:33;23.10;;;12.47;;
6564;SDS011;3316;44.118;27.258;2022-12-16T01:26:58;30.13;;;16.93;;
6564;SDS011;3316;44.118;27.258;2022-12-16T01:29:24;48.63;;;25.60;;
6564;SDS011;3316;44.118;27.258;2022-12-16T01:31:49;37.60;;;18.87;;
6564;SDS011;3316;44.118;27.258;2022-12-16T01:34:15;37.27;;;20.70;;
6564;SDS011;3316;44.118;27.258;2022-12-16T01:36:41;34.63;;;19.73;;
6564;SDS011;3316;44.118;27.258;2022-12-16T01:39:08;29.10;;;15.97;;
6564;SDS011;3316;44.118;27.258;2022-12-16T01:41:35;38.53;;;20.70;;
6564;SDS011;3316;44.118;27.258;2022-12-16T01:44:13;45.03;;;23.17;;
6564;SDS011;3316;44.118;27.258;2022-12-16T01:47:05;43.20;;;22.60;;
6564;SDS011;3316;44.118;27.258;2022-12-16T01:49:34;38.00;;;21.10;;
6564;SDS011;3316;44.118;27.258;2022-12-16T01:52:06;37.73;;;19.50;;
6564;SDS011;3316;44.118;27.258;2022-12-16T01:54:38;21.77;;;13.57;;
6564;SDS011;3316;44.118;27.258;2022-12-16T01:57:26;34.37;;;19.20;;
6564;SDS011;3316;44.118;27.258;2022-12-16T01:59:57;29.40;;;17.93;;
6564;SDS011;3316;44.118;27.258;2022-12-16T02:02:25;58.90;;;32.43;;
6564;SDS011;3316;44.118;27.258;2022-12-16T02:04:51;54.00;;;28.73;;
6564;SDS011;3316;44.118;27.258;2022-12-16T02:07:36;35.73;;;20.33;;
6564;SDS011;3316;44.118;27.258;2022-12-16T02:10:02;30.90;;;17.10;;
6564;SDS011;3316;44.118;27.258;2022-12-16T02:23:10;38.30;;;21.60;;
6564;SDS011;3316;44.118;27.258;2022-12-16T02:34:35;35.87;;;19.93;;
6564;SDS011;3316;44.118;27.258;2022-12-16T02:37:13;34.23;;;20.37;;
6564;SDS011;3316;44.118;27.258;2022-12-16T02:39:51;54.40;;;29.10;;
6564;SDS011;3316;44.118;27.258;2022-12-16T02:47:31;19.13;;;11.83;;
6564;SDS011;3316;44.118;27.258;2022-12-16T02:49:57;24.30;;;14.00;;
6564;SDS011;3316;44.118;27.258;2022-12-16T02:52:26;26.77;;;16.50;;
6564;SDS011;3316;44.118;27.258;2022-12-16T02:54:55;25.70;;;15.20;;
6564;SDS011;3316;44.118;27.258;2022-12-16T03:00:07;33.60;;;19.97;;
6564;SDS011;3316;44.118;27.258;2022-12-16T03:05:39;28.87;;;16.47;;
6564;SDS011;3316;44.118;27.258;2022-12-16T03:08:13;28.47;;;18.10;;
6564;SDS011;3316;44.118;27.258;2022-12-16T03:10:46;55.53;;;30.53;;
6564;SDS011;3316;44.118;27.258;2022-12-16T03:13:16;30.67;;;17.17;;
6564;SDS011;3316;44.118;27.258;2022-12-16T03:15:43;28.03;;;17.60;;
6564;SDS011;3316;44.118;27.258;2022-12-16T03:18:12;24.70;;;14.87;;
6564;SDS011;3316;44.118;27.258;2022-12-16T03:20:42;27.07;;;16.20;;
6564;SDS011;3316;44.118;27.258;2022-12-16T03:23:12;31.90;;;18.10;;
6564;SDS011;3316;44.118;27.258;2022-12-16T03:25:42;25.77;;;16.20;;
6564;SDS011;3316;44.118;27.258;2022-12-16T03:30:39;39.23;;;24.20;;
6564;SDS011;3316;44.118;27.258;2022-12-16T03:33:14;40.53;;;24.00;;
6564;SDS011;3316;44.118;27.258;2022-12-16T03:35:50;50.17;;;30.27;;
6564;SDS011;3316;44.118;27.258;2022-12-16T03:38:21;45.20;;;27.30;;
6564;SDS011;3316;44.118;27.258;2022-12-16T03:40:48;44.00;;;24.43;;
6564;SDS011;3316;44.118;27.258;2022-12-16T03:43:15;48.70;;;28.23;;
6564;SDS011;3316;44.118;27.258;2022-12-16T03:45:42;26.57;;;15.43;;
6564;SDS011;3316;44.118;27.258;2022-12-16T03:48:10;29.57;;;16.10;;
6564;SDS011;3316;44.118;27.258;2022-12-16T03:50:37;29.53;;;18.83;;
6564;SDS011;3316;44.118;27.258;2022-12-16T03:53:04;50.13;;;30.27;;
6564;SDS011;3316;44.118;27.258;2022-12-16T03:55:31;42.13;;;25.20;;
6564;SDS011;3316;44.118;27.258;2022-12-16T03:57:57;49.87;;;30.13;;
6564;SDS011;3316;44.118;27.258;2022-12-16T04:00:23;38.87;;;23.73;;
6564;SDS011;3316;44.118;27.258;2022-12-16T04:02:49;46.37;;;27.80;;
6564;SDS011;3316;44.118;27.258;2022-12-16T04:05:14;41.17;;;23.33;;
6564;SDS011;3316;44.118;27.258;2022-12-16T04:07:40;29.33;;;17.90;;
6564;SDS011;3316;44.118;27.258;2022-12-16T04:10:05;55.17;;;30.23;;
6564;SDS011;3316;44.118;27.258;2022-12-16T04:12:31;97.00;;;49.87;;
6564;SDS011;3316;44.118;27.258;2022-12-16T04:15:16;73.53;;;40.20;;
6564;SDS011;3316;44.118;27.258;2022-12-16T04:17:59;34.43;;;21.23;;
6564;SDS011;3316;44.118;27.258;2022-12-16T04:20:48;38.17;;;21.40;;
6564;SDS011;3316;44.118;27.258;2022-12-16T04:23:40;68.40;;;34.53;;
6564;SDS011;3316;44.118;27.258;2022-12-16T04:26:30;45.03;;;26.63;;
6564;SDS011;3316;44.118;27.258;2022-12-16T04:28:55;48.47;;;26.47;;
6564;SDS011;3316;44.118;27.258;2022-12-16T04:31:20;60.83;;;36.13;;
6564;SDS011;3316;44.118;27.258;2022-12-16T04:33:46;91.53;;;49.07;;
6564;SDS011;3316;44.118;27.258;2022-12-16T04:36:30;75.87;;;43.40;;
6564;SDS011;3316;44.118;27.258;2022-12-16T04:39:14;47.40;;;27.50;;
6564;SDS011;3316;44.118;27.258;2022-12-16T04:41:58;39.67;;;22.23;;
6564;SDS011;3316;44.118;27.258;2022-12-16T04:44:42;39.87;;;22.77;;
6564;SDS011;3316;44.118;27.258;2022-12-16T04:47:26;38.57;;;24.63;;
6564;SDS011;3316;44.118;27.258;2022-12-16T04:50:10;148.53;;;65.73;;
6564;SDS011;3316;44.118;27.258;2022-12-16T04:52:54;72.93;;;38.83;;
6564;SDS011;3316;44.118;27.258;2022-12-16T04:55:38;39.93;;;25.87;;
6564;SDS011;3316;44.118;27.258;2022-12-16T04:58:22;44.27;;;25.83;;
6564;SDS011;3316;44.118;27.258;2022-12-16T05:01:06;116.80;;;57.23;;
6564;SDS011;3316;44.118;27.258;2022-12-16T05:03:50;54.27;;;31.50;;
6564;SDS011;3316;44.118;27.258;2022-12-16T05:06:35;92.50;;;46.07;;
6564;SDS011;3316;44.118;27.258;2022-12-16T05:09:19;217.30;;;91.77;;
6564;SDS011;3316;44.118;27.258;2022-12-16T05:12:03;123.87;;;56.27;;
6564;SDS011;3316;44.118;27.258;2022-12-16T05:14:47;58.60;;;31.03;;
6564;SDS011;3316;44.118;27.258;2022-12-16T05:17:31;67.73;;;37.30;;
6564;SDS011;3316;44.118;27.258;2022-12-16T05:20:15;78.00;;;37.93;;
6564;SDS011;3316;44.118;27.258;2022-12-16T05:22:59;76.57;;;36.63;;
6564;SDS011;3316;44.118;27.258;2022-12-16T05:25:43;60.33;;;31.50;;
6564;SDS011;3316;44.118;27.258;2022-12-16T05:28:27;51.60;;;28.10;;
6564;SDS011;3316;44.118;27.258;2022-12-16T05:31:11;61.77;;;29.20;;
6564;SDS011;3316;44.118;27.258;2022-12-16T05:33:54;55.47;;;28.00;;
6564;SDS011;3316;44.118;27.258;2022-12-16T05:36:38;68.43;;;33.90;;
6564;SDS011;3316;44.118;27.258;2022-12-16T05:39:22;53.80;;;29.80;;
6564;SDS011;3316;44.118;27.258;2022-12-16T05:42:06;52.30;;;28.33;;
6564;SDS011;3316;44.118;27.258;2022-12-16T05:44:51;50.30;;;27.10;;
6564;SDS011;3316;44.118;27.258;2022-12-16T05:47:34;56.70;;;28.83;;
6564;SDS011;3316;44.118;27.258;2022-12-16T05:50:18;58.80;;;27.80;;
6564;SDS011;3316;44.118;27.258;2022-12-16T05:53:02;48.70;;;24.43;;
6564;SDS011;3316;44.118;27.258;2022-12-16T05:55:46;42.97;;;23.47;;
6564;SDS011;3316;44.118;27.258;2022-12-16T05:58:30;43.83;;;23.80;;
6564;SDS011;3316;44.118;27.258;2022-12-16T06:01:14;44.93;;;24.17;;
6564;SDS011;3316;44.118;27.258;2022-12-16T06:03:58;38.23;;;20.00;;
6564;SDS011;3316;44.118;27.258;2022-12-16T06:06:42;41.83;;;21.00;;
6564;SDS011;3316;44.118;27.258;2022-12-16T06:09:27;38.87;;;22.20;;
6564;SDS011;3316;44.118;27.258;2022-12-16T06:12:11;48.03;;;23.67;;
6564;SDS011;3316;44.118;27.258;2022-12-16T06:14:54;47.27;;;22.43;;
6564;SDS011;3316;44.118;27.258;2022-12-16T06:17:42;45.87;;;20.57;;
6564;SDS011;3316;44.118;27.258;2022-12-16T06:20:33;43.00;;;23.33;;
6564;SDS011;3316;44.118;27.258;2022-12-16T06:23:17;37.70;;;18.17;;
6564;SDS011;3316;44.118;27.258;2022-12-16T06:26:01;46.93;;;22.90;;
6564;SDS011;3316;44.118;27.258;2022-12-16T06:28:53;51.67;;;27.43;;
6564;SDS011;3316;44.118;27.258;2022-12-16T06:31:37;63.20;;;28.63;;
6564;SDS011;3316;44.118;27.258;2022-12-16T06:34:21;45.27;;;25.13;;
6564;SDS011;3316;44.118;27.258;2022-12-16T06:37:05;55.47;;;27.27;;
6564;SDS011;3316;44.118;27.258;2022-12-16T06:39:49;64.97;;;29.83;;
6564;SDS011;3316;44.118;27.258;2022-12-16T06:42:33;69.67;;;33.23;;
6564;SDS011;3316;44.118;27.258;2022-12-16T06:45:17;72.90;;;31.53;;
6564;SDS011;3316;44.118;27.258;2022-12-16T06:48:01;53.90;;;25.57;;
6564;SDS011;3316;44.118;27.258;2022-12-16T06:50:46;67.70;;;29.73;;
6564;SDS011;3316;44.118;27.258;2022-12-16T06:53:29;65.87;;;31.87;;
6564;SDS011;3316;44.118;27.258;2022-12-16T06:56:13;76.80;;;34.23;;
6564;SDS011;3316;44.118;27.258;2022-12-16T06:58:57;58.47;;;29.73;;
6564;SDS011;3316;44.118;27.258;2022-12-16T07:01:41;62.10;;;30.07;;
6564;SDS011;3316;44.118;27.258;2022-12-16T07:04:25;63.47;;;30.50;;
6564;SDS011;3316;44.118;27.258;2022-12-16T07:07:09;54.17;;;28.73;;
6564;SDS011;3316;44.118;27.258;2022-12-16T07:09:53;59.83;;;30.47;;
6564;SDS011;3316;44.118;27.258;2022-12-16T07:12:37;56.97;;;29.37;;
6564;SDS011;3316;44.118;27.258;2022-12-16T07:15:21;53.07;;;25.60;;
6564;SDS011;3316;44.118;27.258;2022-12-16T07:18:05;67.27;;;31.63;;
6564;SDS011;3316;44.118;27.258;2022-12-16T07:20:49;49.27;;;23.37;;
6564;SDS011;3316;44.118;27.258;2022-12-16T07:23:33;39.07;;;18.97;;
6564;SDS011;3316;44.118;27.258;2022-12-16T07:26:17;47.57;;;23.10;;
6564;SDS011;3316;44.118;27.258;2022-12-16T07:29:01;40.13;;;18.57;;
6564;SDS011;3316;44.118;27.258;2022-12-16T07:31:45;40.67;;;20.00;;
6564;SDS011;3316;44.118;27.258;2022-12-16T07:34:28;46.23;;;23.03;;
6564;SDS011;3316;44.118;27.258;2022-12-16T07:37:12;42.13;;;22.80;;
6564;SDS011;3316;44.118;27.258;2022-12-16T07:39:56;46.90;;;22.27;;
6564;SDS011;3316;44.118;27.258;2022-12-16T07:42:41;48.67;;;22.50;;
6564;SDS011;3316;44.118;27.258;2022-12-16T07:45:25;45.10;;;24.43;;
6564;SDS011;3316;44.118;27.258;2022-12-16T07:48:09;48.63;;;24.97;;
6564;SDS011;3316;44.118;27.258;2022-12-16T07:50:53;42.27;;;21.87;;
6564;SDS011;3316;44.118;27.258;2022-12-16T07:53:42;61.17;;;28.73;;
6564;SDS011;3316;44.118;27.258;2022-12-16T07:56:26;72.47;;;36.23;;
6564;SDS011;3316;44.118;27.258;2022-12-16T07:59:10;42.73;;;22.93;;
6564;SDS011;3316;44.118;27.258;2022-12-16T08:01:53;47.77;;;25.40;;
6564;SDS011;3316;44.118;27.258;2022-12-16T08:04:37;43.17;;;22.90;;
6564;SDS011;3316;44.118;27.258;2022-12-16T08:07:21;34.43;;;17.13;;
6564;SDS011;3316;44.118;27.258;2022-12-16T08:10:05;40.73;;;21.37;;
6564;SDS011;3316;44.118;27.258;2022-12-16T08:12:50;57.20;;;25.57;;
6564;SDS011;3316;44.118;27.258;2022-12-16T08:15:33;49.93;;;25.13;;
6564;SDS011;3316;44.118;27.258;2022-12-16T08:18:17;55.13;;;27.60;;
6564;SDS011;3316;44.118;27.258;2022-12-16T08:21:01;44.90;;;23.67;;
6564;SDS011;3316;44.118;27.258;2022-12-16T08:23:45;38.80;;;20.50;;
6564;SDS011;3316;44.118;27.258;2022-12-16T08:26:29;40.97;;;20.80;;
6564;SDS011;3316;44.118;27.258;2022-12-16T08:29:13;54.07;;;27.47;;
6564;SDS011;3316;44.118;27.258;2022-12-16T08:31:57;51.50;;;27.20;;
6564;SDS011;3316;44.118;27.258;2022-12-16T08:34:41;65.13;;;32.70;;
6564;SDS011;3316;44.118;27.258;2022-12-16T08:37:24;50.93;;;28.30;;
6564;SDS011;3316;44.118;27.258;2022-12-16T08:40:09;46.13;;;22.20;;
6564;SDS011;3316;44.118;27.258;2022-12-16T08:42:54;42.77;;;23.80;;
6564;SDS011;3316;44.118;27.258;2022-12-16T08:45:41;40.83;;;20.07;;
6564;SDS011;3316;44.118;27.258;2022-12-16T08:48:33;36.77;;;17.33;;
6564;SDS011;3316;44.118;27.258;2022-12-16T08:51:17;37.03;;;19.73;;
6564;SDS011;3316;44.118;27.258;2022-12-16T08:54:01;39.87;;;16.73;;
6564;SDS011;3316;44.118;27.258;2022-12-16T08:56:45;27.87;;;14.90;;
6564;SDS011;3316;44.118;27.258;2022-12-16T08:59:29;27.33;;;13.43;;
6564;SDS011;3316;44.118;27.258;2022-12-16T09:02:13;23.90;;;13.50;;
6564;SDS011;3316;44.118;27.258;2022-12-16T09:04:58;32.10;;;15.93;;
6564;SDS011;3316;44.118;27.258;2022-12-16T09:07:42;34.13;;;14.70;;
6564;SDS011;3316;44.118;27.258;2022-12-16T09:10:26;30.73;;;17.27;;
6564;SDS011;3316;44.118;27.258;2022-12-16T09:13:12;24.40;;;13.37;;
6564;SDS011;3316;44.118;27.258;2022-12-16T09:15:57;28.67;;;15.50;;
6564;SDS011;3316;44.118;27.258;2022-12-16T09:18:42;25.13;;;14.20;;
6564;SDS011;3316;44.118;27.258;2022-12-16T09:21:26;19.57;;;11.30;;
6564;SDS011;3316;44.118;27.258;2022-12-16T09:24:10;23.93;;;13.27;;
6564;SDS011;3316;44.118;27.258;2022-12-16T09:26:54;20.77;;;11.80;;
6564;SDS011;3316;44.118;27.258;2022-12-16T09:29:37;35.87;;;19.20;;
6564;SDS011;3316;44.118;27.258;2022-12-16T09:32:21;98.63;;;39.60;;
6564;SDS011;3316;44.118;27.258;2022-12-16T09:35:06;22.67;;;13.13;;
6564;SDS011;3316;44.118;27.258;2022-12-16T09:37:50;28.17;;;15.70;;
6564;SDS011;3316;44.118;27.258;2022-12-16T09:40:35;28.97;;;14.80;;
6564;SDS011;3316;44.118;27.258;2022-12-16T09:49:01;28.97;;;15.70;;
6564;SDS011;3316;44.118;27.258;2022-12-16T09:51:47;27.47;;;15.87;;
6564;SDS011;3316;44.118;27.258;2022-12-16T09:54:34;32.00;;;16.80;;
6564;SDS011;3316;44.118;27.258;2022-12-16T09:57:24;25.63;;;16.10;;
6564;SDS011;3316;44.118;27.258;2022-12-16T10:00:16;30.63;;;16.40;;
6564;SDS011;3316;44.118;27.258;2022-12-16T10:03:07;25.23;;;15.97;;
6564;SDS011;3316;44.118;27.258;2022-12-16T10:06:29;64.17;;;34.27;;
6564;SDS011;3316;44.118;27.258;2022-12-16T10:21:54;68.03;;;36.97;;
6564;SDS011;3316;44.118;27.258;2022-12-16T10:27:59;28.23;;;15.57;;
6564;SDS011;3316;44.118;27.258;2022-12-16T10:30:56;30.93;;;17.13;;
6564;SDS011;3316;44.118;27.258;2022-12-16T10:33:40;30.13;;;16.67;;
6564;SDS011;3316;44.118;27.258;2022-12-16T10:36:28;27.48;;;15.75;;
6564;SDS011;3316;44.118;27.258;2022-12-16T10:39:23;28.38;;;17.52;;
6564;SDS011;3316;44.118;27.258;2022-12-16T10:42:18;20.23;;;12.75;;
6564;SDS011;3316;44.118;27.258;2022-12-16T10:45:21;26.05;;;14.77;;
6564;SDS011;3316;44.118;27.258;2022-12-16T10:48:20;36.80;;;21.95;;
6564;SDS011;3316;44.118;27.258;2022-12-16T10:51:15;24.20;;;13.77;;
6564;SDS011;3316;44.118;27.258;2022-12-16T11:03:30;21.20;;;11.60;;
6564;SDS011;3316;44.118;27.258;2022-12-16T11:06:16;19.30;;;12.15;;
6564;SDS011;3316;44.118;27.258;2022-12-16T11:12:25;21.20;;;12.57;;
6564;SDS011;3316;44.118;27.258;2022-12-16T11:15:29;23.58;;;14.90;;
6564;SDS011;3316;44.118;27.258;2022-12-16T11:18:18;17.40;;;10.05;;
6564;SDS011;3316;44.118;27.258;2022-12-16T11:21:17;34.92;;;20.85;;
6564;SDS011;3316;44.118;27.258;2022-12-16T11:24:13;24.23;;;14.90;;
6564;SDS011;3316;44.118;27.258;2022-12-16T11:27:09;20.88;;;12.27;;
6564;SDS011;3316;44.118;27.258;2022-12-16T11:29:58;20.92;;;11.13;;
6564;SDS011;3316;44.118;27.258;2022-12-16T11:33:19;49.35;;;25.25;;
6564;SDS011;3316;44.118;27.258;2022-12-16T11:36:19;37.92;;;19.58;;
6564;SDS011;3316;44.118;27.258;2022-12-16T11:39:06;62.03;;;29.08;;
6564;SDS011;3316;44.118;27.258;2022-12-16T11:41:56;70.47;;;33.38;;
6564;SDS011;3316;44.118;27.258;2022-12-16T11:44:45;52.45;;;27.48;;
6564;SDS011;3316;44.118;27.258;2022-12-16T11:47:45;47.53;;;25.05;;
6564;SDS011;3316;44.118;27.258;2022-12-16T11:50:33;48.58;;;27.35;;
6564;SDS011;3316;44.118;27.258;2022-12-16T11:53:29;46.42;;;25.08;;
6564;SDS011;3316;44.118;27.258;2022-12-16T11:56:24;25.02;;;15.00;;
6564;SDS011;3316;44.118;27.258;2022-12-16T11:59:17;38.78;;;20.30;;
6564;SDS011;3316;44.118;27.258;2022-12-16T12:02:11;28.20;;;16.35;;
6564;SDS011;3316;44.118;27.258;2022-12-16T12:05:01;21.02;;;12.93;;
6564;SDS011;3316;44.118;27.258;2022-12-16T12:07:51;21.30;;;13.45;;
6564;SDS011;3316;44.118;27.258;2022-12-16T12:10:43;20.75;;;14.07;;
6564;SDS011;3316;44.118;27.258;2022-12-16T12:17:06;25.60;;;15.80;;
6564;SDS011;3316;44.118;27.258;2022-12-16T12:23:26;37.10;;;20.50;;
6564;SDS011;3316;44.118;27.258;2022-12-16T12:26:31;49.60;;;27.33;;
6564;SDS011;3316;44.118;27.258;2022-12-16T12:29:25;33.77;;;20.53;;
6564;SDS011;3316;44.118;27.258;2022-12-16T12:35:27;38.47;;;21.43;;
6564;SDS011;3316;44.118;27.258;2022-12-16T12:38:18;133.47;;;54.60;;
6564;SDS011;3316;44.118;27.258;2022-12-16T12:41:21;43.70;;;24.33;;
6564;SDS011;3316;44.118;27.258;2022-12-16T12:47:32;39.43;;;22.67;;
6564;SDS011;3316;44.118;27.258;2022-12-16T12:50:30;41.27;;;23.77;;
6564;SDS011;3316;44.118;27.258;2022-12-16T12:53:28;49.00;;;23.80;;
6564;SDS011;3316;44.118;27.258;2022-12-16T13:05:49;50.77;;;26.60;;
6564;SDS011;3316;44.118;27.258;2022-12-16T13:08:42;42.33;;;23.90;;
6564;SDS011;3316;44.118;27.258;2022-12-16T13:11:26;40.03;;;22.30;;
6564;SDS011;3316;44.118;27.258;2022-12-16T13:17:15;45.40;;;23.80;;
6564;SDS011;3316;44.118;27.258;2022-12-16T13:19:59;41.13;;;23.23;;
6564;SDS011;3316;44.118;27.258;2022-12-16T13:22:43;42.57;;;23.53;;
6564;SDS011;3316;44.118;27.258;2022-12-16T13:25:39;40.97;;;23.27;;
6564;SDS011;3316;44.118;27.258;2022-12-16T13:28:33;51.67;;;23.93;;
6564;SDS011;3316;44.118;27.258;2022-12-16T13:31:19;46.63;;;24.67;;
6564;SDS011;3316;44.118;27.258;2022-12-16T13:34:18;54.20;;;28.40;;
6564;SDS011;3316;44.118;27.258;2022-12-16T13:37:06;59.37;;;29.47;;
6564;SDS011;3316;44.118;27.258;2022-12-16T13:40:15;60.03;;;28.13;;
6564;SDS011;3316;44.118;27.258;2022-12-16T13:43:02;57.47;;;28.37;;
6564;SDS011;3316;44.118;27.258;2022-12-16T13:46:20;56.33;;;28.67;;
6564;SDS011;3316;44.118;27.258;2022-12-16T13:49:16;69.47;;;31.67;;
6564;SDS011;3316;44.118;27.258;2022-12-16T13:55:27;64.13;;;31.37;;
6564;SDS011;3316;44.118;27.258;2022-12-16T13:58:35;65.20;;;32.20;;
6564;SDS011;3316;44.118;27.258;2022-12-16T14:01:27;85.93;;;38.20;;
6564;SDS011;3316;44.118;27.258;2022-12-16T14:04:21;83.27;;;37.97;;
6564;SDS011;3316;44.118;27.258;2022-12-16T14:07:13;123.23;;;47.67;;
6564;SDS011;3316;44.118;27.258;2022-12-16T14:09:59;70.07;;;32.43;;
6564;SDS011;3316;44.118;27.258;2022-12-16T14:15:49;91.83;;;32.73;;
6564;SDS011;3316;44.118;27.258;2022-12-16T14:21:49;106.90;;;36.10;;
6564;SDS011;3316;44.118;27.258;2022-12-16T14:24:36;102.67;;;32.03;;
6564;SDS011;3316;44.118;27.258;2022-12-16T14:27:21;86.00;;;31.10;;
6564;SDS011;3316;44.118;27.258;2022-12-16T14:30:39;73.93;;;29.80;;
6564;SDS011;3316;44.118;27.258;2022-12-16T14:33:33;74.50;;;28.47;;
6564;SDS011;3316;44.118;27.258;2022-12-16T14:36:18;65.20;;;27.97;;
6564;SDS011;3316;44.118;27.258;2022-12-16T14:39:13;73.97;;;30.03;;
6564;SDS011;3316;44.118;27.258;2022-12-16T14:42:13;99.80;;;33.57;;
6564;SDS011;3316;44.118;27.258;2022-12-16T14:45:04;74.73;;;29.43;;
6564;SDS011;3316;44.118;27.258;2022-12-16T14:48:20;90.73;;;34.03;;
6564;SDS011;3316;44.118;27.258;2022-12-16T14:51:28;83.20;;;34.23;;
6564;SDS011;3316;44.118;27.258;2022-12-16T14:57:11;90.27;;;36.33;;
6564;SDS011;3316;44.118;27.258;2022-12-16T14:59:59;88.80;;;32.27;;
6564;SDS011;3316;44.118;27.258;2022-12-16T15:02:46;81.90;;;33.03;;
6564;SDS011;3316;44.118;27.258;2022-12-16T15:05:34;91.50;;;37.13;;
6564;SDS011;3316;44.118;27.258;2022-12-16T15:08:20;93.17;;;35.53;;
6564;SDS011;3316;44.118;27.258;2022-12-16T15:11:05;109.30;;;46.73;;
6564;SDS011;3316;44.118;27.258;2022-12-16T15:13:53;133.87;;;58.07;;
6564;SDS011;3316;44.118;27.258;2022-12-16T15:16:42;109.03;;;47.43;;
6564;SDS011;3316;44.118;27.258;2022-12-16T15:19:27;110.00;;;46.13;;
6564;SDS011;3316;44.118;27.258;2022-12-16T15:22:19;103.83;;;46.63;;
6564;SDS011;3316;44.118;27.258;2022-12-16T15:25:04;135.00;;;50.13;;
6564;SDS011;3316;44.118;27.258;2022-12-16T15:27:52;115.57;;;50.23;;
6564;SDS011;3316;44.118;27.258;2022-12-16T15:30:39;131.50;;;56.63;;
6564;SDS011;3316;44.118;27.258;2022-12-16T15:33:28;180.00;;;78.07;;
6564;SDS011;3316;44.118;27.258;2022-12-16T15:36:27;146.10;;;65.70;;
6564;SDS011;3316;44.118;27.258;2022-12-16T15:39:17;166.63;;;74.63;;
6564;SDS011;3316;44.118;27.258;2022-12-16T15:42:15;137.07;;;59.67;;
6564;SDS011;3316;44.118;27.258;2022-12-16T15:45:03;117.93;;;48.73;;
6564;SDS011;3316;44.118;27.258;2022-12-16T15:47:48;111.37;;;41.40;;
6564;SDS011;3316;44.118;27.258;2022-12-16T15:50:33;103.70;;;34.10;;
6564;SDS011;3316;44.118;27.258;2022-12-16T15:53:28;107.73;;;35.07;;
6564;SDS011;3316;44.118;27.258;2022-12-16T15:59:21;128.60;;;35.47;;
6564;SDS011;3316;44.118;27.258;2022-12-16T16:02:21;146.80;;;35.20;;
6564;SDS011;3316;44.118;27.258;2022-12-16T16:05:15;100.37;;;32.73;;
6564;SDS011;3316;44.118;27.258;2022-12-16T16:08:02;86.53;;;32.63;;
6564;SDS011;3316;44.118;27.258;2022-12-16T16:10:47;109.10;;;33.13;;
6564;SDS011;3316;44.118;27.258;2022-12-16T16:13:31;113.90;;;32.37;;
6564;SDS011;3316;44.118;27.258;2022-12-16T16:16:15;88.23;;;33.37;;
6564;SDS011;3316;44.118;27.258;2022-12-16T16:19:00;113.03;;;29.23;;
6564;SDS011;3316;44.118;27.258;2022-12-16T16:21:44;88.50;;;29.87;;
6564;SDS011;3316;44.118;27.258;2022-12-16T16:24:29;74.70;;;28.00;;
6564;SDS011;3316;44.118;27.258;2022-12-16T16:27:13;93.40;;;31.77;;
6564;SDS011;3316;44.118;27.258;2022-12-16T16:29:59;94.23;;;32.27;;
6564;SDS011;3316;44.118;27.258;2022-12-16T16:32:44;101.47;;;29.70;;
6564;SDS011;3316;44.118;27.258;2022-12-16T16:35:29;101.87;;;28.13;;
6564;SDS011;3316;44.118;27.258;2022-12-16T16:38:14;69.60;;;25.97;;
6564;SDS011;3316;44.118;27.258;2022-12-16T16:40:59;76.33;;;26.53;;
6564;SDS011;3316;44.118;27.258;2022-12-16T16:43:43;97.33;;;36.43;;
6564;SDS011;3316;44.118;27.258;2022-12-16T16:46:34;84.07;;;29.40;;
6564;SDS011;3316;44.118;27.258;2022-12-16T16:52:25;92.87;;;27.87;;
6564;SDS011;3316;44.118;27.258;2022-12-16T16:55:17;93.77;;;27.80;;
6564;SDS011;3316;44.118;27.258;2022-12-16T16:58:09;94.53;;;26.97;;
6564;SDS011;3316;44.118;27.258;2022-12-16T17:00:58;77.90;;;27.67;;
6564;SDS011;3316;44.118;27.258;2022-12-16T17:03:42;59.33;;;24.20;;
6564;SDS011;3316;44.118;27.258;2022-12-16T17:06:26;69.10;;;28.73;;
6564;SDS011;3316;44.118;27.258;2022-12-16T17:09:09;92.03;;;29.50;;
6564;SDS011;3316;44.118;27.258;2022-12-16T17:11:53;96.80;;;28.67;;
6564;SDS011;3316;44.118;27.258;2022-12-16T17:14:37;94.87;;;25.40;;
6564;SDS011;3316;44.118;27.258;2022-12-16T17:17:21;76.00;;;25.77;;
6564;SDS011;3316;44.118;27.258;2022-12-16T17:20:06;91.57;;;30.47;;
6564;SDS011;3316;44.118;27.258;2022-12-16T17:22:50;73.13;;;26.03;;
6564;SDS011;3316;44.118;27.258;2022-12-16T17:25:34;75.17;;;23.90;;
6564;SDS011;3316;44.118;27.258;2022-12-16T17:28:18;90.43;;;27.10;;
6564;SDS011;3316;44.118;27.258;2022-12-16T17:31:02;75.03;;;25.80;;
6564;SDS011;3316;44.118;27.258;2022-12-16T17:33:46;76.83;;;24.77;;
6564;SDS011;3316;44.118;27.258;2022-12-16T17:36:30;73.03;;;25.23;;
6564;SDS011;3316;44.118;27.258;2022-12-16T17:39:14;99.03;;;30.00;;
6564;SDS011;3316;44.118;27.258;2022-12-16T17:41:58;106.83;;;27.07;;
6564;SDS011;3316;44.118;27.258;2022-12-16T17:44:42;78.77;;;30.10;;
6564;SDS011;3316;44.118;27.258;2022-12-16T17:47:26;78.67;;;26.30;;
6564;SDS011;3316;44.118;27.258;2022-12-16T17:50:10;63.80;;;27.10;;
6564;SDS011;3316;44.118;27.258;2022-12-16T17:52:54;68.07;;;28.97;;
6564;SDS011;3316;44.118;27.258;2022-12-16T17:55:39;83.17;;;32.93;;
6564;SDS011;3316;44.118;27.258;2022-12-16T17:58:30;102.03;;;41.90;;